sensor_id;sensor_type;location;lat;lon;timestamp;P1;durP1;ratioP1;P2;durP2;ratioP2
12088;SDS011;6107;49.078;8.578;2023-08-31T00:01:16;3.38;;;1.73;;
12088;SDS011;6107;49.078;8.578;2023-08-31T00:03:43;3.63;;;2.03;;
12088;SDS011;6107;49.078;8.578;2023-08-31T00:06:09;3.05;;;1.73;;
12088;SDS011;6107;49.078;8.578;2023-08-31T00:08:35;4.10;;;1.92;;
12088;SDS011;6107;49.078;8.578;2023-08-31T00:11:00;3.25;;;1.65;;
12088;SDS011;6107;49.078;8.578;2023-08-31T00:13:26;3.30;;;1.77;;
12088;SDS011;6107;49.078;8.578;2023-08-31T00:15:55;2.95;;;1.63;;
12088;SDS011;6107;49.078;8.578;2023-08-31T00:18:22;7.82;;;1.70;;
12088;SDS011;6107;49.078;8.578;2023-08-31T00:20:49;5.85;;;2.22;;
12088;SDS011;6107;49.078;8.578;2023-08-31T00:23:14;3.63;;;1.88;;
12088;SDS011;6107;49.078;8.578;2023-08-31T00:25:40;3.40;;;1.70;;
12088;SDS011;6107;49.078;8.578;2023-08-31T00:28:08;4.50;;;2.22;;
12088;SDS011;6107;49.078;8.578;2023-08-31T00:30:34;7.65;;;1.98;;
12088;SDS011;6107;49.078;8.578;2023-08-31T00:33:00;4.22;;;1.92;;
12088;SDS011;6107;49.078;8.578;2023-08-31T00:35:26;3.55;;;2.20;;
12088;SDS011;6107;49.078;8.578;2023-08-31T00:37:55;1.92;;;1.27;;
12088;SDS011;6107;49.078;8.578;2023-08-31T00:40:23;5.95;;;2.28;;
12088;SDS011;6107;49.078;8.578;2023-08-31T00:42:53;7.07;;;2.10;;
12088;SDS011;6107;49.078;8.578;2023-08-31T00:45:18;6.10;;;2.28;;
12088;SDS011;6107;49.078;8.578;2023-08-31T00:47:45;3.92;;;2.53;;
12088;SDS011;6107;49.078;8.578;2023-08-31T00:50:12;4.70;;;2.00;;
12088;SDS011;6107;49.078;8.578;2023-08-31T00:52:38;5.78;;;3.10;;
12088;SDS011;6107;49.078;8.578;2023-08-31T00:55:04;3.58;;;2.22;;
12088;SDS011;6107;49.078;8.578;2023-08-31T00:57:30;4.28;;;2.13;;
12088;SDS011;6107;49.078;8.578;2023-08-31T00:59:56;3.58;;;2.00;;
12088;SDS011;6107;49.078;8.578;2023-08-31T01:02:29;3.95;;;2.22;;
12088;SDS011;6107;49.078;8.578;2023-08-31T01:05:12;6.13;;;2.20;;
12088;SDS011;6107;49.078;8.578;2023-08-31T01:07:48;5.47;;;2.15;;
12088;SDS011;6107;49.078;8.578;2023-08-31T01:10:29;4.85;;;2.38;;
12088;SDS011;6107;49.078;8.578;2023-08-31T01:15:36;3.70;;;2.00;;
12088;SDS011;6107;49.078;8.578;2023-08-31T01:18:05;4.53;;;2.67;;
12088;SDS011;6107;49.078;8.578;2023-08-31T01:20:44;4.85;;;2.05;;
12088;SDS011;6107;49.078;8.578;2023-08-31T01:23:16;3.80;;;2.20;;
12088;SDS011;6107;49.078;8.578;2023-08-31T01:25:45;4.88;;;2.38;;
12088;SDS011;6107;49.078;8.578;2023-08-31T01:28:13;3.38;;;2.33;;
12088;SDS011;6107;49.078;8.578;2023-08-31T01:30:39;6.25;;;2.53;;
12088;SDS011;6107;49.078;8.578;2023-08-31T01:33:05;4.07;;;2.17;;
12088;SDS011;6107;49.078;8.578;2023-08-31T01:35:33;4.75;;;2.00;;
12088;SDS011;6107;49.078;8.578;2023-08-31T01:38:14;4.60;;;2.17;;
12088;SDS011;6107;49.078;8.578;2023-08-31T01:40:44;4.78;;;2.67;;
12088;SDS011;6107;49.078;8.578;2023-08-31T01:43:19;6.90;;;2.22;;
12088;SDS011;6107;49.078;8.578;2023-08-31T01:45:47;4.30;;;2.20;;
12088;SDS011;6107;49.078;8.578;2023-08-31T01:48:14;3.92;;;2.38;;
12088;SDS011;6107;49.078;8.578;2023-08-31T01:50:40;5.93;;;2.83;;
12088;SDS011;6107;49.078;8.578;2023-08-31T01:53:05;4.97;;;2.50;;
12088;SDS011;6107;49.078;8.578;2023-08-31T01:55:31;5.20;;;2.78;;
12088;SDS011;6107;49.078;8.578;2023-08-31T01:57:57;4.22;;;2.63;;
12088;SDS011;6107;49.078;8.578;2023-08-31T02:00:23;5.82;;;2.22;;
12088;SDS011;6107;49.078;8.578;2023-08-31T02:02:50;3.20;;;1.80;;
12088;SDS011;6107;49.078;8.578;2023-08-31T02:05:15;10.73;;;2.53;;
12088;SDS011;6107;49.078;8.578;2023-08-31T02:07:41;3.53;;;2.03;;
12088;SDS011;6107;49.078;8.578;2023-08-31T02:10:06;3.80;;;1.98;;
12088;SDS011;6107;49.078;8.578;2023-08-31T02:12:32;6.30;;;2.38;;
12088;SDS011;6107;49.078;8.578;2023-08-31T02:14:58;4.88;;;2.38;;
12088;SDS011;6107;49.078;8.578;2023-08-31T02:17:24;11.32;;;2.20;;
12088;SDS011;6107;49.078;8.578;2023-08-31T02:19:50;4.75;;;2.25;;
12088;SDS011;6107;49.078;8.578;2023-08-31T02:22:16;4.55;;;2.83;;
12088;SDS011;6107;49.078;8.578;2023-08-31T02:24:41;3.80;;;1.92;;
12088;SDS011;6107;49.078;8.578;2023-08-31T02:27:07;4.05;;;1.65;;
12088;SDS011;6107;49.078;8.578;2023-08-31T02:29:32;3.38;;;2.20;;
12088;SDS011;6107;49.078;8.578;2023-08-31T02:31:58;3.72;;;1.92;;
12088;SDS011;6107;49.078;8.578;2023-08-31T02:34:24;7.53;;;2.15;;
12088;SDS011;6107;49.078;8.578;2023-08-31T02:36:49;4.50;;;2.25;;
12088;SDS011;6107;49.078;8.578;2023-08-31T02:39:15;11.40;;;2.35;;
12088;SDS011;6107;49.078;8.578;2023-08-31T02:41:41;3.03;;;1.98;;
12088;SDS011;6107;49.078;8.578;2023-08-31T02:44:06;2.90;;;1.90;;
12088;SDS011;6107;49.078;8.578;2023-08-31T02:46:32;4.93;;;1.98;;
12088;SDS011;6107;49.078;8.578;2023-08-31T02:48:57;6.65;;;2.17;;
12088;SDS011;6107;49.078;8.578;2023-08-31T02:51:23;4.28;;;2.47;;
12088;SDS011;6107;49.078;8.578;2023-08-31T02:53:48;8.02;;;2.33;;
12088;SDS011;6107;49.078;8.578;2023-08-31T02:56:14;5.63;;;1.90;;
12088;SDS011;6107;49.078;8.578;2023-08-31T02:58:40;6.18;;;2.50;;
12088;SDS011;6107;49.078;8.578;2023-08-31T03:01:09;4.95;;;2.20;;
12088;SDS011;6107;49.078;8.578;2023-08-31T03:03:38;8.40;;;2.47;;
12088;SDS011;6107;49.078;8.578;2023-08-31T03:06:05;7.78;;;2.25;;
12088;SDS011;6107;49.078;8.578;2023-08-31T03:08:33;9.95;;;2.45;;
12088;SDS011;6107;49.078;8.578;2023-08-31T03:10:58;6.55;;;2.03;;
12088;SDS011;6107;49.078;8.578;2023-08-31T03:13:24;3.25;;;2.20;;
12088;SDS011;6107;49.078;8.578;2023-08-31T03:15:50;3.28;;;2.13;;
12088;SDS011;6107;49.078;8.578;2023-08-31T03:18:15;7.93;;;3.20;;
12088;SDS011;6107;49.078;8.578;2023-08-31T03:20:41;4.45;;;2.05;;
12088;SDS011;6107;49.078;8.578;2023-08-31T03:23:06;10.60;;;2.35;;
12088;SDS011;6107;49.078;8.578;2023-08-31T03:25:34;5.72;;;2.20;;
12088;SDS011;6107;49.078;8.578;2023-08-31T03:27:59;5.72;;;2.35;;
12088;SDS011;6107;49.078;8.578;2023-08-31T03:30:25;3.60;;;1.92;;
12088;SDS011;6107;49.078;8.578;2023-08-31T03:32:50;3.75;;;2.55;;
12088;SDS011;6107;49.078;8.578;2023-08-31T03:35:16;4.68;;;2.17;;
12088;SDS011;6107;49.078;8.578;2023-08-31T03:37:41;3.90;;;2.28;;
12088;SDS011;6107;49.078;8.578;2023-08-31T03:40:07;4.40;;;2.20;;
12088;SDS011;6107;49.078;8.578;2023-08-31T03:42:33;6.18;;;2.45;;
12088;SDS011;6107;49.078;8.578;2023-08-31T03:45:00;7.75;;;2.38;;
12088;SDS011;6107;49.078;8.578;2023-08-31T03:47:26;7.78;;;3.15;;
12088;SDS011;6107;49.078;8.578;2023-08-31T03:49:51;3.22;;;2.00;;
12088;SDS011;6107;49.078;8.578;2023-08-31T03:52:16;4.43;;;2.42;;
12088;SDS011;6107;49.078;8.578;2023-08-31T03:54:42;4.28;;;2.33;;
12088;SDS011;6107;49.078;8.578;2023-08-31T03:57:07;5.35;;;2.30;;
12088;SDS011;6107;49.078;8.578;2023-08-31T03:59:33;3.78;;;2.40;;
12088;SDS011;6107;49.078;8.578;2023-08-31T04:01:58;6.10;;;3.22;;
12088;SDS011;6107;49.078;8.578;2023-08-31T04:04:24;3.92;;;2.20;;
12088;SDS011;6107;49.078;8.578;2023-08-31T04:06:49;3.58;;;2.15;;
12088;SDS011;6107;49.078;8.578;2023-08-31T04:09:15;4.75;;;2.53;;
12088;SDS011;6107;49.078;8.578;2023-08-31T04:11:40;4.40;;;2.63;;
12088;SDS011;6107;49.078;8.578;2023-08-31T04:14:06;3.25;;;1.75;;
12088;SDS011;6107;49.078;8.578;2023-08-31T04:16:31;6.95;;;2.67;;
12088;SDS011;6107;49.078;8.578;2023-08-31T04:18:57;7.65;;;3.17;;
12088;SDS011;6107;49.078;8.578;2023-08-31T04:21:23;6.10;;;2.55;;
12088;SDS011;6107;49.078;8.578;2023-08-31T04:23:48;6.22;;;2.22;;
12088;SDS011;6107;49.078;8.578;2023-08-31T04:26:14;5.40;;;2.45;;
12088;SDS011;6107;49.078;8.578;2023-08-31T04:28:42;4.10;;;2.15;;
12088;SDS011;6107;49.078;8.578;2023-08-31T04:31:08;3.15;;;2.30;;
12088;SDS011;6107;49.078;8.578;2023-08-31T04:33:34;3.67;;;1.88;;
12088;SDS011;6107;49.078;8.578;2023-08-31T04:36:00;12.65;;;2.83;;
12088;SDS011;6107;49.078;8.578;2023-08-31T04:38:25;4.10;;;2.40;;
12088;SDS011;6107;49.078;8.578;2023-08-31T04:40:51;11.30;;;2.95;;
12088;SDS011;6107;49.078;8.578;2023-08-31T04:43:16;6.00;;;2.00;;
12088;SDS011;6107;49.078;8.578;2023-08-31T04:45:42;6.97;;;2.00;;
12088;SDS011;6107;49.078;8.578;2023-08-31T04:48:07;8.90;;;2.40;;
12088;SDS011;6107;49.078;8.578;2023-08-31T04:50:33;9.85;;;2.33;;
12088;SDS011;6107;49.078;8.578;2023-08-31T04:52:58;2.75;;;1.83;;
12088;SDS011;6107;49.078;8.578;2023-08-31T04:55:24;5.45;;;1.92;;
12088;SDS011;6107;49.078;8.578;2023-08-31T04:57:50;4.30;;;1.90;;
12088;SDS011;6107;49.078;8.578;2023-08-31T05:00:16;7.32;;;2.60;;
12088;SDS011;6107;49.078;8.578;2023-08-31T05:02:41;9.65;;;2.17;;
12088;SDS011;6107;49.078;8.578;2023-08-31T05:05:08;8.57;;;2.10;;
12088;SDS011;6107;49.078;8.578;2023-08-31T05:07:34;4.30;;;2.13;;
12088;SDS011;6107;49.078;8.578;2023-08-31T05:09:59;5.50;;;2.70;;
12088;SDS011;6107;49.078;8.578;2023-08-31T05:12:25;5.10;;;1.90;;
12088;SDS011;6107;49.078;8.578;2023-08-31T05:14:50;5.18;;;2.35;;
12088;SDS011;6107;49.078;8.578;2023-08-31T05:17:16;3.45;;;1.90;;
12088;SDS011;6107;49.078;8.578;2023-08-31T05:19:41;9.05;;;2.20;;
12088;SDS011;6107;49.078;8.578;2023-08-31T05:22:07;4.22;;;1.98;;
12088;SDS011;6107;49.078;8.578;2023-08-31T05:24:32;2.83;;;1.88;;
12088;SDS011;6107;49.078;8.578;2023-08-31T05:26:58;10.60;;;2.20;;
12088;SDS011;6107;49.078;8.578;2023-08-31T05:29:23;2.88;;;1.85;;
12088;SDS011;6107;49.078;8.578;2023-08-31T05:31:49;2.53;;;1.80;;
12088;SDS011;6107;49.078;8.578;2023-08-31T05:34:16;8.35;;;2.15;;
12088;SDS011;6107;49.078;8.578;2023-08-31T05:36:45;4.28;;;2.30;;
12088;SDS011;6107;49.078;8.578;2023-08-31T05:39:11;3.95;;;2.13;;
12088;SDS011;6107;49.078;8.578;2023-08-31T05:41:36;3.08;;;1.60;;
12088;SDS011;6107;49.078;8.578;2023-08-31T05:44:05;5.20;;;1.95;;
12088;SDS011;6107;49.078;8.578;2023-08-31T05:46:30;6.38;;;1.95;;
12088;SDS011;6107;49.078;8.578;2023-08-31T05:48:56;8.75;;;2.67;;
12088;SDS011;6107;49.078;8.578;2023-08-31T05:51:21;5.82;;;1.50;;
12088;SDS011;6107;49.078;8.578;2023-08-31T05:53:47;12.23;;;2.38;;
12088;SDS011;6107;49.078;8.578;2023-08-31T05:56:12;3.85;;;1.80;;
12088;SDS011;6107;49.078;8.578;2023-08-31T05:58:38;2.97;;;1.70;;
12088;SDS011;6107;49.078;8.578;2023-08-31T06:01:03;2.88;;;1.80;;
12088;SDS011;6107;49.078;8.578;2023-08-31T06:03:29;2.10;;;1.50;;
12088;SDS011;6107;49.078;8.578;2023-08-31T06:05:56;6.63;;;1.85;;
12088;SDS011;6107;49.078;8.578;2023-08-31T06:08:22;3.47;;;1.90;;
12088;SDS011;6107;49.078;8.578;2023-08-31T06:10:48;6.68;;;1.70;;
12088;SDS011;6107;49.078;8.578;2023-08-31T06:13:13;2.38;;;1.83;;
12088;SDS011;6107;49.078;8.578;2023-08-31T06:15:39;6.10;;;1.30;;
12088;SDS011;6107;49.078;8.578;2023-08-31T06:18:04;2.63;;;1.40;;
12088;SDS011;6107;49.078;8.578;2023-08-31T06:20:30;3.03;;;1.65;;
12088;SDS011;6107;49.078;8.578;2023-08-31T06:22:56;5.57;;;1.80;;
12088;SDS011;6107;49.078;8.578;2023-08-31T06:25:22;1.92;;;1.65;;
12088;SDS011;6107;49.078;8.578;2023-08-31T06:27:48;3.38;;;1.73;;
12088;SDS011;6107;49.078;8.578;2023-08-31T06:30:14;2.90;;;1.52;;
12088;SDS011;6107;49.078;8.578;2023-08-31T06:32:45;3.70;;;2.35;;
12088;SDS011;6107;49.078;8.578;2023-08-31T06:35:11;9.57;;;2.00;;
12088;SDS011;6107;49.078;8.578;2023-08-31T06:37:38;4.43;;;1.80;;
12088;SDS011;6107;49.078;8.578;2023-08-31T06:40:05;4.32;;;2.10;;
12088;SDS011;6107;49.078;8.578;2023-08-31T06:42:31;6.13;;;1.73;;
12088;SDS011;6107;49.078;8.578;2023-08-31T06:44:57;3.58;;;1.50;;
12088;SDS011;6107;49.078;8.578;2023-08-31T06:47:22;14.48;;;2.05;;
12088;SDS011;6107;49.078;8.578;2023-08-31T06:49:49;3.67;;;1.38;;
12088;SDS011;6107;49.078;8.578;2023-08-31T06:52:14;4.45;;;1.75;;
12088;SDS011;6107;49.078;8.578;2023-08-31T06:54:41;4.78;;;1.40;;
12088;SDS011;6107;49.078;8.578;2023-08-31T06:57:06;2.20;;;1.40;;
12088;SDS011;6107;49.078;8.578;2023-08-31T06:59:32;5.85;;;2.05;;
12088;SDS011;6107;49.078;8.578;2023-08-31T07:01:58;2.58;;;1.40;;
12088;SDS011;6107;49.078;8.578;2023-08-31T07:04:23;5.22;;;1.52;;
12088;SDS011;6107;49.078;8.578;2023-08-31T07:06:49;4.32;;;1.55;;
12088;SDS011;6107;49.078;8.578;2023-08-31T07:09:15;3.95;;;1.50;;
12088;SDS011;6107;49.078;8.578;2023-08-31T07:11:40;2.40;;;1.55;;
12088;SDS011;6107;49.078;8.578;2023-08-31T07:14:06;2.08;;;1.50;;
12088;SDS011;6107;49.078;8.578;2023-08-31T07:16:31;3.35;;;1.17;;
12088;SDS011;6107;49.078;8.578;2023-08-31T07:18:57;6.18;;;1.17;;
12088;SDS011;6107;49.078;8.578;2023-08-31T07:21:22;4.15;;;1.55;;
12088;SDS011;6107;49.078;8.578;2023-08-31T07:23:48;3.63;;;1.08;;
12088;SDS011;6107;49.078;8.578;2023-08-31T07:26:13;5.65;;;1.45;;
12088;SDS011;6107;49.078;8.578;2023-08-31T07:28:40;4.18;;;1.75;;
12088;SDS011;6107;49.078;8.578;2023-08-31T07:31:06;4.65;;;1.80;;
12088;SDS011;6107;49.078;8.578;2023-08-31T07:33:32;3.88;;;1.75;;
12088;SDS011;6107;49.078;8.578;2023-08-31T07:35:59;2.33;;;1.52;;
12088;SDS011;6107;49.078;8.578;2023-08-31T07:38:26;3.80;;;1.65;;
12088;SDS011;6107;49.078;8.578;2023-08-31T07:40:52;2.72;;;1.42;;
12088;SDS011;6107;49.078;8.578;2023-08-31T07:43:18;3.38;;;1.65;;
12088;SDS011;6107;49.078;8.578;2023-08-31T07:45:43;8.45;;;1.65;;
12088;SDS011;6107;49.078;8.578;2023-08-31T07:48:09;3.63;;;1.52;;
12088;SDS011;6107;49.078;8.578;2023-08-31T07:50:34;2.45;;;1.40;;
12088;SDS011;6107;49.078;8.578;2023-08-31T07:53:00;2.30;;;1.45;;
12088;SDS011;6107;49.078;8.578;2023-08-31T07:55:25;11.50;;;2.40;;
12088;SDS011;6107;49.078;8.578;2023-08-31T07:57:51;4.90;;;1.50;;
12088;SDS011;6107;49.078;8.578;2023-08-31T08:00:17;4.00;;;1.45;;
12088;SDS011;6107;49.078;8.578;2023-08-31T08:02:44;6.20;;;1.70;;
12088;SDS011;6107;49.078;8.578;2023-08-31T08:05:11;5.47;;;1.88;;
12088;SDS011;6107;49.078;8.578;2023-08-31T08:07:36;2.75;;;1.30;;
12088;SDS011;6107;49.078;8.578;2023-08-31T08:10:02;2.05;;;1.10;;
12088;SDS011;6107;49.078;8.578;2023-08-31T08:12:28;1.52;;;1.00;;
12088;SDS011;6107;49.078;8.578;2023-08-31T08:15:05;7.20;;;1.40;;
12088;SDS011;6107;49.078;8.578;2023-08-31T08:17:32;3.22;;;0.88;;
12088;SDS011;6107;49.078;8.578;2023-08-31T08:19:57;1.73;;;1.20;;
12088;SDS011;6107;49.078;8.578;2023-08-31T08:22:24;2.70;;;1.27;;
12088;SDS011;6107;49.078;8.578;2023-08-31T08:24:50;3.88;;;1.42;;
12088;SDS011;6107;49.078;8.578;2023-08-31T08:27:15;7.90;;;1.13;;
12088;SDS011;6107;49.078;8.578;2023-08-31T08:29:42;4.97;;;1.17;;
12088;SDS011;6107;49.078;8.578;2023-08-31T08:32:08;6.25;;;1.30;;
12088;SDS011;6107;49.078;8.578;2023-08-31T08:34:34;4.25;;;1.42;;
12088;SDS011;6107;49.078;8.578;2023-08-31T08:36:59;4.38;;;1.13;;
12088;SDS011;6107;49.078;8.578;2023-08-31T08:39:25;2.42;;;0.90;;
12088;SDS011;6107;49.078;8.578;2023-08-31T08:41:51;2.10;;;0.93;;
12088;SDS011;6107;49.078;8.578;2023-08-31T08:44:19;2.15;;;1.30;;
12088;SDS011;6107;49.078;8.578;2023-08-31T08:46:46;2.75;;;1.00;;
12088;SDS011;6107;49.078;8.578;2023-08-31T08:49:13;2.47;;;1.10;;
12088;SDS011;6107;49.078;8.578;2023-08-31T08:51:40;5.00;;;1.50;;
12088;SDS011;6107;49.078;8.578;2023-08-31T08:54:06;10.32;;;1.40;;
12088;SDS011;6107;49.078;8.578;2023-08-31T08:56:33;2.92;;;0.98;;
12088;SDS011;6107;49.078;8.578;2023-08-31T08:58:59;2.33;;;0.98;;
12088;SDS011;6107;49.078;8.578;2023-08-31T09:01:25;3.53;;;1.27;;
12088;SDS011;6107;49.078;8.578;2023-08-31T09:03:51;3.40;;;1.23;;
12088;SDS011;6107;49.078;8.578;2023-08-31T09:06:16;2.80;;;1.17;;
12088;SDS011;6107;49.078;8.578;2023-08-31T09:08:42;10.00;;;2.00;;
12088;SDS011;6107;49.078;8.578;2023-08-31T09:11:07;1.33;;;0.90;;
12088;SDS011;6107;49.078;8.578;2023-08-31T09:13:33;2.10;;;1.00;;
12088;SDS011;6107;49.078;8.578;2023-08-31T09:15:59;1.80;;;0.82;;
12088;SDS011;6107;49.078;8.578;2023-08-31T09:20:51;4.38;;;1.40;;
12088;SDS011;6107;49.078;8.578;2023-08-31T09:23:17;9.90;;;1.38;;
12088;SDS011;6107;49.078;8.578;2023-08-31T09:25:44;3.67;;;1.50;;
12088;SDS011;6107;49.078;8.578;2023-08-31T09:28:13;9.20;;;1.20;;
12088;SDS011;6107;49.078;8.578;2023-08-31T09:30:40;2.58;;;0.85;;
12088;SDS011;6107;49.078;8.578;2023-08-31T09:33:07;5.43;;;1.15;;
12088;SDS011;6107;49.078;8.578;2023-08-31T09:35:34;1.70;;;0.95;;
12088;SDS011;6107;49.078;8.578;2023-08-31T09:38:08;2.22;;;1.15;;
12088;SDS011;6107;49.078;8.578;2023-08-31T09:40:35;6.05;;;1.00;;
12088;SDS011;6107;49.078;8.578;2023-08-31T09:43:03;2.65;;;1.02;;
12088;SDS011;6107;49.078;8.578;2023-08-31T09:45:30;1.30;;;0.93;;
12088;SDS011;6107;49.078;8.578;2023-08-31T09:47:58;2.80;;;1.00;;
12088;SDS011;6107;49.078;8.578;2023-08-31T09:50:26;2.55;;;0.95;;
12088;SDS011;6107;49.078;8.578;2023-08-31T09:52:55;8.10;;;1.00;;
12088;SDS011;6107;49.078;8.578;2023-08-31T09:55:22;4.18;;;1.10;;
12088;SDS011;6107;49.078;8.578;2023-08-31T09:57:53;7.20;;;1.60;;
12088;SDS011;6107;49.078;8.578;2023-08-31T10:00:22;3.08;;;0.93;;
12088;SDS011;6107;49.078;8.578;2023-08-31T10:02:50;1.58;;;0.85;;
12088;SDS011;6107;49.078;8.578;2023-08-31T10:05:16;3.88;;;1.52;;
12088;SDS011;6107;49.078;8.578;2023-08-31T10:07:42;3.38;;;1.20;;
12088;SDS011;6107;49.078;8.578;2023-08-31T10:10:08;3.25;;;1.33;;
12088;SDS011;6107;49.078;8.578;2023-08-31T10:12:35;4.93;;;1.13;;
12088;SDS011;6107;49.078;8.578;2023-08-31T10:15:01;2.75;;;1.00;;
12088;SDS011;6107;49.078;8.578;2023-08-31T10:17:28;2.95;;;1.10;;
12088;SDS011;6107;49.078;8.578;2023-08-31T10:19:54;4.40;;;1.33;;
12088;SDS011;6107;49.078;8.578;2023-08-31T10:22:20;2.45;;;1.30;;
12088;SDS011;6107;49.078;8.578;2023-08-31T10:25:02;5.07;;;1.13;;
12088;SDS011;6107;49.078;8.578;2023-08-31T10:27:40;2.65;;;0.98;;
12088;SDS011;6107;49.078;8.578;2023-08-31T10:30:14;2.58;;;1.27;;
12088;SDS011;6107;49.078;8.578;2023-08-31T10:35:47;4.25;;;1.75;;
12088;SDS011;6107;49.078;8.578;2023-08-31T10:38:17;2.28;;;1.00;;
12088;SDS011;6107;49.078;8.578;2023-08-31T10:41:02;4.22;;;1.23;;
12088;SDS011;6107;49.078;8.578;2023-08-31T10:46:24;3.55;;;1.60;;
12088;SDS011;6107;49.078;8.578;2023-08-31T10:48:55;2.22;;;1.05;;
12088;SDS011;6107;49.078;8.578;2023-08-31T10:51:22;1.70;;;1.10;;
12088;SDS011;6107;49.078;8.578;2023-08-31T10:54:03;5.72;;;1.20;;
12088;SDS011;6107;49.078;8.578;2023-08-31T10:56:38;3.13;;;1.35;;
12088;SDS011;6107;49.078;8.578;2023-08-31T10:59:16;5.63;;;1.40;;
12088;SDS011;6107;49.078;8.578;2023-08-31T11:01:58;3.03;;;1.25;;
12088;SDS011;6107;49.078;8.578;2023-08-31T11:04:25;4.55;;;1.30;;
12088;SDS011;6107;49.078;8.578;2023-08-31T11:09:37;5.70;;;1.30;;
12088;SDS011;6107;49.078;8.578;2023-08-31T11:12:03;9.23;;;2.63;;
12088;SDS011;6107;49.078;8.578;2023-08-31T11:14:28;10.95;;;2.20;;
12088;SDS011;6107;49.078;8.578;2023-08-31T11:16:54;9.80;;;4.57;;
12088;SDS011;6107;49.078;8.578;2023-08-31T11:19:20;5.95;;;1.30;;
12088;SDS011;6107;49.078;8.578;2023-08-31T11:21:46;4.70;;;1.52;;
12088;SDS011;6107;49.078;8.578;2023-08-31T11:24:11;5.03;;;1.85;;
12088;SDS011;6107;49.078;8.578;2023-08-31T11:26:37;4.00;;;1.58;;
12088;SDS011;6107;49.078;8.578;2023-08-31T11:29:06;5.65;;;1.17;;
12088;SDS011;6107;49.078;8.578;2023-08-31T11:31:32;20.60;;;1.35;;
12088;SDS011;6107;49.078;8.578;2023-08-31T11:34:04;3.65;;;1.13;;
12088;SDS011;6107;49.078;8.578;2023-08-31T11:36:30;2.95;;;1.25;;
12088;SDS011;6107;49.078;8.578;2023-08-31T11:38:56;2.78;;;1.17;;
12088;SDS011;6107;49.078;8.578;2023-08-31T11:41:22;2.95;;;1.83;;
12088;SDS011;6107;49.078;8.578;2023-08-31T11:43:48;6.65;;;1.45;;
12088;SDS011;6107;49.078;8.578;2023-08-31T11:46:15;2.22;;;1.20;;
12088;SDS011;6107;49.078;8.578;2023-08-31T11:48:41;4.72;;;1.25;;
12088;SDS011;6107;49.078;8.578;2023-08-31T11:51:07;3.45;;;1.40;;
12088;SDS011;6107;49.078;8.578;2023-08-31T11:53:33;5.82;;;1.90;;
12088;SDS011;6107;49.078;8.578;2023-08-31T11:56:01;3.00;;;1.33;;
12088;SDS011;6107;49.078;8.578;2023-08-31T11:58:27;10.60;;;2.47;;
12088;SDS011;6107;49.078;8.578;2023-08-31T12:00:56;4.03;;;1.30;;
12088;SDS011;6107;49.078;8.578;2023-08-31T12:03:23;5.80;;;1.20;;
12088;SDS011;6107;49.078;8.578;2023-08-31T12:05:51;2.30;;;1.05;;
12088;SDS011;6107;49.078;8.578;2023-08-31T12:08:25;2.13;;;1.10;;
12088;SDS011;6107;49.078;8.578;2023-08-31T12:10:52;5.82;;;1.33;;
12088;SDS011;6107;49.078;8.578;2023-08-31T12:13:17;7.55;;;2.17;;
12088;SDS011;6107;49.078;8.578;2023-08-31T12:15:43;4.53;;;1.55;;
12088;SDS011;6107;49.078;8.578;2023-08-31T12:18:09;7.32;;;2.13;;
12088;SDS011;6107;49.078;8.578;2023-08-31T12:20:51;4.13;;;1.17;;
12088;SDS011;6107;49.078;8.578;2023-08-31T12:23:20;4.18;;;1.83;;
12088;SDS011;6107;49.078;8.578;2023-08-31T12:25:53;8.65;;;1.83;;
12088;SDS011;6107;49.078;8.578;2023-08-31T12:28:20;4.65;;;1.48;;
12088;SDS011;6107;49.078;8.578;2023-08-31T12:30:55;4.18;;;1.70;;
12088;SDS011;6107;49.078;8.578;2023-08-31T12:33:24;12.02;;;1.70;;
12088;SDS011;6107;49.078;8.578;2023-08-31T12:35:50;3.58;;;0.90;;
12088;SDS011;6107;49.078;8.578;2023-08-31T12:38:15;1.58;;;1.02;;
12088;SDS011;6107;49.078;8.578;2023-08-31T12:40:41;4.05;;;1.15;;
12088;SDS011;6107;49.078;8.578;2023-08-31T12:43:07;4.85;;;1.70;;
12088;SDS011;6107;49.078;8.578;2023-08-31T12:45:34;5.80;;;1.02;;
12088;SDS011;6107;49.078;8.578;2023-08-31T12:48:01;6.78;;;1.45;;
12088;SDS011;6107;49.078;8.578;2023-08-31T12:50:28;4.38;;;1.10;;
12088;SDS011;6107;49.078;8.578;2023-08-31T12:52:54;3.97;;;1.30;;
12088;SDS011;6107;49.078;8.578;2023-08-31T12:55:20;3.05;;;1.30;;
12088;SDS011;6107;49.078;8.578;2023-08-31T12:57:45;9.57;;;1.73;;
12088;SDS011;6107;49.078;8.578;2023-08-31T13:00:11;2.45;;;1.30;;
12088;SDS011;6107;49.078;8.578;2023-08-31T13:02:38;4.75;;;1.13;;
12088;SDS011;6107;49.078;8.578;2023-08-31T13:05:04;3.17;;;1.52;;
12088;SDS011;6107;49.078;8.578;2023-08-31T13:07:30;8.02;;;1.55;;
12088;SDS011;6107;49.078;8.578;2023-08-31T13:09:57;2.22;;;1.60;;
12088;SDS011;6107;49.078;8.578;2023-08-31T13:12:24;2.13;;;1.02;;
12088;SDS011;6107;49.078;8.578;2023-08-31T13:14:50;10.13;;;1.70;;
12088;SDS011;6107;49.078;8.578;2023-08-31T13:17:15;5.10;;;1.23;;
12088;SDS011;6107;49.078;8.578;2023-08-31T13:19:41;8.27;;;1.58;;
12088;SDS011;6107;49.078;8.578;2023-08-31T13:22:06;4.65;;;1.50;;
12088;SDS011;6107;49.078;8.578;2023-08-31T13:24:32;3.95;;;1.13;;
12088;SDS011;6107;49.078;8.578;2023-08-31T13:26:57;4.32;;;1.20;;
12088;SDS011;6107;49.078;8.578;2023-08-31T13:29:23;3.03;;;1.25;;
12088;SDS011;6107;49.078;8.578;2023-08-31T13:31:49;5.30;;;2.08;;
12088;SDS011;6107;49.078;8.578;2023-08-31T13:34:14;4.50;;;1.27;;
12088;SDS011;6107;49.078;8.578;2023-08-31T13:36:40;6.53;;;1.50;;
12088;SDS011;6107;49.078;8.578;2023-08-31T13:39:06;5.93;;;1.20;;
12088;SDS011;6107;49.078;8.578;2023-08-31T13:41:32;1.73;;;0.88;;
12088;SDS011;6107;49.078;8.578;2023-08-31T13:43:58;9.07;;;1.50;;
12088;SDS011;6107;49.078;8.578;2023-08-31T13:46:23;3.75;;;1.17;;
12088;SDS011;6107;49.078;8.578;2023-08-31T13:48:49;5.15;;;1.38;;
12088;SDS011;6107;49.078;8.578;2023-08-31T13:51:14;3.25;;;1.40;;
12088;SDS011;6107;49.078;8.578;2023-08-31T13:53:40;3.67;;;1.10;;
12088;SDS011;6107;49.078;8.578;2023-08-31T13:56:05;6.90;;;1.65;;
12088;SDS011;6107;49.078;8.578;2023-08-31T13:58:31;2.33;;;0.88;;
12088;SDS011;6107;49.078;8.578;2023-08-31T14:00:56;5.47;;;1.25;;
12088;SDS011;6107;49.078;8.578;2023-08-31T14:03:22;5.13;;;1.40;;
12088;SDS011;6107;49.078;8.578;2023-08-31T14:05:48;6.00;;;1.85;;
12088;SDS011;6107;49.078;8.578;2023-08-31T14:08:14;6.63;;;1.13;;
12088;SDS011;6107;49.078;8.578;2023-08-31T14:10:40;5.13;;;1.65;;
12088;SDS011;6107;49.078;8.578;2023-08-31T14:13:06;3.35;;;1.20;;
12088;SDS011;6107;49.078;8.578;2023-08-31T14:15:32;2.67;;;1.08;;
12088;SDS011;6107;49.078;8.578;2023-08-31T14:17:57;4.60;;;1.08;;
12088;SDS011;6107;49.078;8.578;2023-08-31T14:20:23;8.35;;;1.33;;
12088;SDS011;6107;49.078;8.578;2023-08-31T14:22:49;4.57;;;1.42;;
12088;SDS011;6107;49.078;8.578;2023-08-31T14:25:15;2.33;;;0.80;;
12088;SDS011;6107;49.078;8.578;2023-08-31T14:27:41;2.40;;;1.13;;
12088;SDS011;6107;49.078;8.578;2023-08-31T14:30:07;2.15;;;1.08;;
12088;SDS011;6107;49.078;8.578;2023-08-31T14:32:33;4.25;;;1.48;;
12088;SDS011;6107;49.078;8.578;2023-08-31T14:34:58;2.53;;;1.40;;
12088;SDS011;6107;49.078;8.578;2023-08-31T14:37:24;2.30;;;1.13;;
12088;SDS011;6107;49.078;8.578;2023-08-31T14:39:49;2.50;;;1.23;;
12088;SDS011;6107;49.078;8.578;2023-08-31T14:42:16;12.63;;;1.42;;
12088;SDS011;6107;49.078;8.578;2023-08-31T14:44:42;3.60;;;1.17;;
12088;SDS011;6107;49.078;8.578;2023-08-31T14:47:09;6.90;;;1.83;;
12088;SDS011;6107;49.078;8.578;2023-08-31T14:49:34;4.10;;;1.20;;
12088;SDS011;6107;49.078;8.578;2023-08-31T14:52:03;3.35;;;1.02;;
12088;SDS011;6107;49.078;8.578;2023-08-31T14:54:31;2.15;;;1.15;;
12088;SDS011;6107;49.078;8.578;2023-08-31T14:56:57;5.50;;;1.55;;
12088;SDS011;6107;49.078;8.578;2023-08-31T14:59:22;5.78;;;1.73;;
12088;SDS011;6107;49.078;8.578;2023-08-31T15:01:49;6.53;;;1.63;;
12088;SDS011;6107;49.078;8.578;2023-08-31T15:04:15;2.58;;;1.20;;
12088;SDS011;6107;49.078;8.578;2023-08-31T15:06:41;4.95;;;1.42;;
12088;SDS011;6107;49.078;8.578;2023-08-31T15:09:06;5.90;;;1.48;;
12088;SDS011;6107;49.078;8.578;2023-08-31T15:11:32;3.10;;;1.02;;